This is the latest recevied weather packets stored in our database for station/object NW6UP. If no packets are shown the sender has not sent any weather packets the latest 10 day(s).
| Time | Temp. | Humidity | Pressure | Rain* | Wind** | Luminosity | Snow |
|---|---|---|---|---|---|---|---|
| 1777927465 | 20° C | 48% | 1014.4 hPa | 0 mm | - | - | - |
| 1777926266 | 20° C | 48% | 1014.4 hPa | 0 mm | - | - | - |
| 1777925066 | 21.11° C | 46% | 0 hPa | 0 mm | - | - | - |
| 1777923867 | 20.56° C | 47% | 1014.7 hPa | 0 mm | - | - | - |
| 1777921467 | 21.67° C | 43% | 0 hPa | 0 mm | - | - | - |
| 1777920266 | 20° C | 46% | 1014.4 hPa | 0 mm | - | - | - |
| 1777919066 | 20.56° C | 45% | 0 hPa | 0 mm | - | - | - |
| 1777917865 | 20.56° C | 45% | 0 hPa | 0 mm | - | - | - |
| 1777916666 | 22.78° C | 41% | 0 hPa | 0 mm | - | - | - |
| 1777915466 | 19.44° C | 47% | 1014.3 hPa | 0 mm | - | - | - |
| 1777914266 | 21.11° C | 45% | 0 hPa | 0 mm | - | - | - |
| 1777911866 | 20.56° C | 46% | 1014.5 hPa | 0 mm | - | - | - |
| 1777910665 | 22.78° C | 40% | 0 hPa | 0 mm | - | - | - |
| 1777909468 | 22.22° C | 42% | 1014.4 hPa | 0 mm | - | - | - |
| 1777904666 | 14.44° C | 70% | 1014 hPa | 0 mm | - | - | - |
| 1777903468 | 10.56° C | 91% | 0 hPa | 0 mm | - | - | - |
| 1777902266 | 8.33° C | 92% | 1014.1 hPa | 0 mm | - | - | - |
| 1777901066 | 8.33° C | 92% | 1014.2 hPa | 0 mm | - | - | - |
| 1777899865 | 8.33° C | 92% | 1014.2 hPa | 0 mm | - | - | - |
| 1777898667 | 8.33° C | 93% | 1014.1 hPa | 0 mm | - | - | - |
| 1777897465 | 7.78° C | 91% | 1014.1 hPa | 0 mm | - | - | - |
| 1777896269 | 8.33° C | 90% | 1014.2 hPa | 0 mm | - | - | - |
| 1777895068 | 8.33° C | 89% | 0 hPa | 0 mm | - | - | - |
| 1777893865 | 8.89° C | 90% | 1014.2 hPa | 0 mm | - | - | - |
| 1777892666 | 8.89° C | 90% | 0 hPa | 0 mm | - | - | - |
* Rain latest hour (hover to see other rain measurements)
** Current wind speed in m/s (hover to see current wind gust speed)